San Juan de Aznalfarache, Spain
Current Conditions -  °F | °C
As of 4:00 AM on Friday 28 Nov 2014 (Local Time) from LEZL Reporting Station
Moderate Rain Moderate Rain  
Wind Chill: 55°   Ceiling: 1300
Heat Index: 55°   Visibility: 4mi
Dew Point: 54°   Wind: 24mph
Humidity: 94%   Direction: 150°SSE
Pressure: 28.97"   Gusts: 39mph
Location:  37.36°N, 6.04°W
Report Text: LEZL 280300Z 15021G34KT 120V180 6000 RA BKN013 13/12 Q0981 NOSIG
Loading
Personal Weather Stations






























Interactive Weather Map New forecast layout! Learn more

10-Day Weather Forecast

Advertisements
Track Severe Weather on mobile